createdAt,value
2018-12-19T00:01:05.374Z,1.30
2018-12-19T00:03:34.079Z,1.30
2018-12-19T00:06:03.119Z,1.20
2018-12-19T00:08:32.597Z,1.20
2018-12-19T00:11:01.891Z,1.10
2018-12-19T00:13:31.298Z,1.00
2018-12-19T00:16:01.255Z,1.00
2018-12-19T00:18:29.840Z,1.00
2018-12-19T00:20:58.564Z,1.00
2018-12-19T00:23:27.465Z,0.90
2018-12-19T00:25:56.893Z,0.90
2018-12-19T00:28:26.133Z,0.90
2018-12-19T00:30:54.994Z,0.90
2018-12-19T00:33:23.407Z,1.00
2018-12-19T00:35:51.853Z,0.90
2018-12-19T00:38:20.640Z,0.90
2018-12-19T00:40:49.958Z,0.90
2018-12-19T00:43:18.559Z,0.90
2018-12-19T00:45:47.083Z,1.00
2018-12-19T00:48:15.482Z,1.10
2018-12-19T00:50:44.126Z,1.10
2018-12-19T00:53:12.706Z,1.10
2018-12-19T00:55:47.435Z,0.90
2018-12-19T00:58:16.114Z,0.80
2018-12-19T01:00:45.136Z,0.80
2018-12-19T01:03:14.733Z,0.80
2018-12-19T01:05:43.097Z,0.70
2018-12-19T01:08:11.527Z,0.60
2018-12-19T01:10:40.710Z,0.60
2018-12-19T01:13:09.180Z,0.60
2018-12-19T01:15:37.742Z,0.60
2018-12-19T01:18:06.221Z,0.70
2018-12-19T01:20:34.690Z,0.70
2018-12-19T01:23:03.558Z,0.80
2018-12-19T01:25:32.149Z,0.90
2018-12-19T01:28:00.891Z,0.90
2018-12-19T01:30:30.033Z,0.80
2018-12-19T01:32:58.836Z,0.70
2018-12-19T01:35:27.990Z,0.70
2018-12-19T01:37:57.412Z,0.80
2018-12-19T01:40:26.405Z,0.90
2018-12-19T01:42:54.920Z,1.10
2018-12-19T01:45:23.374Z,1.10
2018-12-19T01:47:52.256Z,0.90
2018-12-19T01:50:21.714Z,0.80
2018-12-19T01:52:50.165Z,0.80
2018-12-19T01:55:19.478Z,0.70
2018-12-19T01:57:48.763Z,0.80
2018-12-19T02:00:22.558Z,0.80
2018-12-19T02:02:51.060Z,0.70
2018-12-19T02:05:19.512Z,0.70
2018-12-19T02:07:50.314Z,0.60
2018-12-19T02:10:19.174Z,0.70
2018-12-19T02:12:48.939Z,0.80
2018-12-19T02:15:17.775Z,0.80
2018-12-19T02:17:47.209Z,0.80
2018-12-19T02:20:15.634Z,0.80
2018-12-19T02:22:44.076Z,0.90
2018-12-19T02:25:12.413Z,0.90
2018-12-19T02:27:41.403Z,0.70
2018-12-19T02:30:10.126Z,0.70
2018-12-19T02:32:38.540Z,0.80
2018-12-19T02:35:07.579Z,0.90
2018-12-19T02:37:36.391Z,1.00
2018-12-19T02:40:05.751Z,1.00
2018-12-19T02:42:34.076Z,1.00
2018-12-19T02:45:03.692Z,0.80
2018-12-19T02:47:32.529Z,0.70
2018-12-19T02:50:04.295Z,0.70
2018-12-19T02:52:33.121Z,0.70
2018-12-19T02:55:01.716Z,0.70
2018-12-19T02:57:31.081Z,0.60
2018-12-19T02:59:59.790Z,0.60
2018-12-19T03:02:28.703Z,0.60
2018-12-19T03:04:57.083Z,0.60
2018-12-19T03:07:25.423Z,0.60
2018-12-19T03:09:53.924Z,0.60
2018-12-19T03:12:22.225Z,0.70
2018-12-19T03:14:52.681Z,0.90
2018-12-19T03:17:22.490Z,0.80
2018-12-19T03:19:50.835Z,0.80
2018-12-19T03:22:20.929Z,0.80
2018-12-19T03:24:50.275Z,0.90
2018-12-19T03:27:18.638Z,0.80
2018-12-19T03:29:47.038Z,0.80
2018-12-19T03:32:15.311Z,0.90
2018-12-19T03:34:44.128Z,0.80
2018-12-19T03:37:12.551Z,0.70
2018-12-19T03:39:41.161Z,0.80
2018-12-19T03:42:09.532Z,0.70
2018-12-19T03:44:37.796Z,0.60
2018-12-19T03:47:06.422Z,0.50
2018-12-19T03:49:35.073Z,0.40
2018-12-19T03:52:03.371Z,0.40
2018-12-19T03:54:37.099Z,0.50
2018-12-19T03:57:06.208Z,0.50
2018-12-19T03:59:34.541Z,0.50
2018-12-19T04:02:02.882Z,0.50
2018-12-19T04:04:31.196Z,0.50
2018-12-19T04:06:59.575Z,0.40
2018-12-19T04:09:28.021Z,0.40
2018-12-19T04:11:56.494Z,0.40
2018-12-19T04:14:24.774Z,0.50
2018-12-19T04:16:53.140Z,0.50
2018-12-19T04:19:21.511Z,0.60
2018-12-19T04:21:49.806Z,0.70
2018-12-19T04:24:23.841Z,0.60
2018-12-19T04:26:52.156Z,0.60
2018-12-19T04:29:20.482Z,0.50
2018-12-19T04:31:48.745Z,0.50
2018-12-19T04:34:17.145Z,0.60
2018-12-19T04:36:45.749Z,0.60
2018-12-19T04:39:14.076Z,0.60
2018-12-19T04:41:42.372Z,0.80
2018-12-19T04:44:10.944Z,0.70
2018-12-19T04:46:39.342Z,0.40
2018-12-19T04:49:08.588Z,0.50
2018-12-19T04:51:36.913Z,0.50
2018-12-19T04:54:05.284Z,0.60
2018-12-19T04:56:36.176Z,0.70
2018-12-19T04:59:04.601Z,0.70
2018-12-19T05:01:36.291Z,0.70
2018-12-19T05:04:04.675Z,0.80
2018-12-19T05:06:33.320Z,0.80
2018-12-19T05:09:01.753Z,0.80
2018-12-19T05:11:30.234Z,0.90
2018-12-19T05:13:58.770Z,0.80
2018-12-19T05:16:28.958Z,0.80
2018-12-19T05:18:58.784Z,0.90
2018-12-19T05:21:28.097Z,1.10
2018-12-19T05:23:56.537Z,1.10
2018-12-19T05:26:25.130Z,1.20
2018-12-19T05:28:53.955Z,1.20
2018-12-19T05:31:24.507Z,1.10
2018-12-19T05:33:54.630Z,1.10
2018-12-19T05:36:26.497Z,1.20
2018-12-19T05:38:55.520Z,1.20
2018-12-19T05:41:24.396Z,1.30
2018-12-19T05:43:53.709Z,1.40
2018-12-19T05:46:23.009Z,1.30
2018-12-19T05:48:51.494Z,1.40
2018-12-19T05:51:20.228Z,1.40
2018-12-19T05:53:50.475Z,1.50
2018-12-19T05:56:20.853Z,1.40
2018-12-19T05:58:50.259Z,1.50
2018-12-19T06:01:19.592Z,1.50
2018-12-19T06:03:48.914Z,1.50
2018-12-19T06:06:18.630Z,1.50
2018-12-19T06:08:48.883Z,1.50
2018-12-19T06:11:18.398Z,1.60
2018-12-19T06:13:46.703Z,1.70
2018-12-19T06:16:16.210Z,1.70
2018-12-19T06:18:45.398Z,1.70
2018-12-19T06:21:13.925Z,1.60
2018-12-19T06:23:42.488Z,1.70
2018-12-19T06:26:11.440Z,1.70
2018-12-19T06:28:40.949Z,1.70
2018-12-19T06:31:10.598Z,1.80
2018-12-19T06:33:40.912Z,1.70
2018-12-19T06:36:10.581Z,1.80
2018-12-19T06:38:39.460Z,1.80
2018-12-19T06:41:08.795Z,2.00
2018-12-19T06:43:38.321Z,1.90
2018-12-19T06:46:08.295Z,2.10
2018-12-19T06:48:37.228Z,2.00
2018-12-19T06:51:13.276Z,2.10
2018-12-19T06:53:42.999Z,2.10
2018-12-19T06:56:13.157Z,2.20
2018-12-19T06:58:43.473Z,2.10
2018-12-19T07:01:12.137Z,2.00
2018-12-19T07:03:42.460Z,2.00
2018-12-19T07:06:11.956Z,2.10
2018-12-19T07:08:42.036Z,2.10
2018-12-19T07:11:10.721Z,2.20
2018-12-19T07:13:39.174Z,2.20
2018-12-19T07:16:12.869Z,2.20
2018-12-19T07:18:42.672Z,2.10
2018-12-19T07:21:11.964Z,2.10
2018-12-19T07:23:41.386Z,2.10
2018-12-19T07:26:11.617Z,2.20
2018-12-19T07:28:42.148Z,2.20
2018-12-19T07:31:12.415Z,2.20
2018-12-19T07:33:43.105Z,2.20
2018-12-19T07:36:24.985Z,2.30
2018-12-19T07:38:54.585Z,2.40
2018-12-19T07:41:24.933Z,2.40
2018-12-19T07:43:53.514Z,2.40
2018-12-19T07:46:24.251Z,2.50
2018-12-19T07:48:52.915Z,2.60
2018-12-19T07:51:21.355Z,2.50
2018-12-19T07:53:49.755Z,2.50
2018-12-19T07:56:18.640Z,2.60
2018-12-19T07:58:47.080Z,2.60
2018-12-19T08:01:15.554Z,2.70
2018-12-19T08:03:44.545Z,2.80
2018-12-19T08:06:14.841Z,2.90
2018-12-19T08:08:43.814Z,3.00
2018-12-19T08:11:12.608Z,3.20
2018-12-19T08:13:41.068Z,3.30
2018-12-19T08:16:10.301Z,3.30
2018-12-19T08:18:38.741Z,3.20
2018-12-19T08:21:08.060Z,3.00
2018-12-19T08:23:36.414Z,3.00
2018-12-19T08:26:05.071Z,3.10
2018-12-19T08:28:33.474Z,3.20
2018-12-19T08:31:01.790Z,3.30
2018-12-19T08:33:30.900Z,3.40
2018-12-19T08:36:00.064Z,3.50
2018-12-19T08:38:28.636Z,3.60
2018-12-19T08:40:58.865Z,3.60
2018-12-19T08:43:27.388Z,3.70
2018-12-19T08:45:56.057Z,3.80
2018-12-19T08:48:24.587Z,3.80
2018-12-19T08:50:52.982Z,3.80
2018-12-19T08:53:21.547Z,3.90
2018-12-19T08:55:49.874Z,4.10
2018-12-19T08:58:18.293Z,4.20
2018-12-19T09:00:46.843Z,4.30
2018-12-19T09:03:15.570Z,4.10
2018-12-19T09:05:50.998Z,4.10
2018-12-19T09:08:19.631Z,4.10
2018-12-19T09:10:48.824Z,4.30
2018-12-19T09:13:17.246Z,4.40
2018-12-19T09:15:50.539Z,4.50
2018-12-19T09:18:19.943Z,4.60
2018-12-19T09:20:48.492Z,4.70
2018-12-19T09:23:17.061Z,4.70
2018-12-19T09:25:45.356Z,4.80
2018-12-19T09:28:13.790Z,4.80
2018-12-19T09:30:42.246Z,4.70
2018-12-19T09:33:10.567Z,4.80
2018-12-19T09:35:38.857Z,4.70
2018-12-19T09:38:08.018Z,4.70
2018-12-19T09:40:36.344Z,4.60
2018-12-19T09:43:04.696Z,4.70
2018-12-19T09:45:33.128Z,4.70
2018-12-19T09:48:02.169Z,4.70
2018-12-19T09:50:30.437Z,4.70
2018-12-19T09:52:58.793Z,4.70
2018-12-19T09:55:27.044Z,4.70
2018-12-19T09:57:55.380Z,4.70
2018-12-19T10:00:28.864Z,4.80
2018-12-19T10:02:57.229Z,4.80
2018-12-19T10:05:25.821Z,4.90
2018-12-19T10:07:54.176Z,4.90
2018-12-19T10:10:22.933Z,5.00
2018-12-19T10:12:51.218Z,5.20
2018-12-19T10:15:20.292Z,5.30
2018-12-19T10:17:48.705Z,5.30
2018-12-19T10:20:17.814Z,5.30
2018-12-19T10:22:46.205Z,5.40
2018-12-19T10:25:15.313Z,5.60
2018-12-19T10:27:43.671Z,5.60
2018-12-19T10:30:13.783Z,5.60
2018-12-19T10:32:43.014Z,5.60
2018-12-19T10:35:12.466Z,5.60
2018-12-19T10:37:41.958Z,5.70
2018-12-19T10:40:12.726Z,5.80
2018-12-19T10:42:42.109Z,5.90
2018-12-19T10:45:12.120Z,5.90
2018-12-19T10:47:41.244Z,5.90
2018-12-19T10:50:11.483Z,5.80
2018-12-19T10:52:40.136Z,6.00
2018-12-19T10:55:09.301Z,6.00
2018-12-19T10:57:37.914Z,5.90
2018-12-19T11:00:14.734Z,5.80
2018-12-19T11:02:45.214Z,5.70
2018-12-19T11:05:14.153Z,5.60
2018-12-19T11:07:44.918Z,5.60
2018-12-19T11:10:14.146Z,5.60
2018-12-19T11:12:42.441Z,5.60
2018-12-19T11:15:16.065Z,5.80
2018-12-19T11:17:44.431Z,6.00
2018-12-19T11:20:13.390Z,6.10
2018-12-19T11:22:42.781Z,5.90
2018-12-19T11:25:12.579Z,5.70
2018-12-19T11:27:42.068Z,5.80
2018-12-19T11:30:10.510Z,5.90
2018-12-19T11:32:38.844Z,6.00
2018-12-19T11:35:07.304Z,5.90
2018-12-19T11:37:35.683Z,5.80
2018-12-19T11:40:05.813Z,5.80
2018-12-19T11:42:34.242Z,5.60
2018-12-19T11:45:03.389Z,5.50
2018-12-19T11:47:31.944Z,5.50
2018-12-19T11:50:00.299Z,5.60
2018-12-19T11:52:29.638Z,5.60
2018-12-19T11:54:59.194Z,5.70
2018-12-19T11:57:28.564Z,5.60
2018-12-19T12:00:04.397Z,5.70
2018-12-19T12:02:34.707Z,5.80
2018-12-19T12:05:04.089Z,5.90
2018-12-19T12:07:34.132Z,6.00
2018-12-19T12:10:05.952Z,5.80
2018-12-19T12:12:36.082Z,5.80
2018-12-19T12:15:05.636Z,5.90
2018-12-19T12:17:35.750Z,6.00
2018-12-19T12:20:06.374Z,6.00
2018-12-19T12:22:41.108Z,6.00
2018-12-19T12:25:10.033Z,6.00
2018-12-19T12:27:41.337Z,5.90
2018-12-19T12:30:15.143Z,5.90
2018-12-19T12:32:43.866Z,6.00
2018-12-19T12:35:12.837Z,6.00
2018-12-19T12:37:41.562Z,6.00
2018-12-19T12:40:10.698Z,6.00
2018-12-19T12:42:40.236Z,6.00
2018-12-19T12:45:09.842Z,6.00
2018-12-19T12:47:41.017Z,6.00
2018-12-19T12:50:10.401Z,6.10
2018-12-19T12:52:38.946Z,6.10
2018-12-19T12:55:08.136Z,6.00
2018-12-19T12:57:37.434Z,6.00
2018-12-19T13:00:08.075Z,6.10
2018-12-19T13:02:36.987Z,6.10
2018-12-19T13:05:06.936Z,6.10
2018-12-19T13:07:36.081Z,6.20
2018-12-19T13:10:05.908Z,6.20
2018-12-19T13:12:36.314Z,6.20
2018-12-19T13:15:05.501Z,6.20
2018-12-19T13:17:34.055Z,6.00
2018-12-19T13:20:05.438Z,6.00
2018-12-19T13:22:38.799Z,5.90
2018-12-19T13:25:12.183Z,5.70
2018-12-19T13:27:42.928Z,5.80
2018-12-19T13:30:12.028Z,5.70
2018-12-19T13:32:40.570Z,5.70
2018-12-19T13:35:08.985Z,5.70
2018-12-19T13:37:38.064Z,5.80
2018-12-19T13:40:06.913Z,5.80
2018-12-19T13:42:35.300Z,5.80
2018-12-19T13:45:04.759Z,5.80
2018-12-19T13:47:35.756Z,5.80
2018-12-19T13:50:07.813Z,5.80
2018-12-19T13:52:36.695Z,5.70
2018-12-19T13:55:06.567Z,5.70
2018-12-19T13:57:35.534Z,5.80
2018-12-19T14:00:05.142Z,5.80
2018-12-19T14:02:37.314Z,5.80
2018-12-19T14:05:06.768Z,5.80
2018-12-19T14:07:45.055Z,5.70
2018-12-19T14:10:15.561Z,5.80
2018-12-19T14:12:44.474Z,5.70
2018-12-19T14:15:18.765Z,5.60
2018-12-19T14:17:47.228Z,5.60
2018-12-19T14:20:15.766Z,5.50
2018-12-19T14:23:13.078Z,5.50
2018-12-19T14:25:41.541Z,5.50
2018-12-19T14:28:10.042Z,5.50
2018-12-19T14:30:38.543Z,5.50
2018-12-19T14:33:09.157Z,5.40
2018-12-19T14:35:39.143Z,5.40
2018-12-19T14:38:07.752Z,5.40
2018-12-19T14:40:37.948Z,5.40
2018-12-19T14:43:06.575Z,5.50
2018-12-19T14:45:35.344Z,5.50
2018-12-19T14:48:03.845Z,5.40
2018-12-19T14:50:34.251Z,5.40
2018-12-19T14:53:04.592Z,5.30
2018-12-19T14:55:33.719Z,5.30
2018-12-19T14:58:02.400Z,5.30
2018-12-19T15:00:32.794Z,5.50
2018-12-19T15:03:02.844Z,5.40
2018-12-19T15:05:31.673Z,5.40
2018-12-19T15:08:00.277Z,5.30
2018-12-19T15:10:32.843Z,5.20
2018-12-19T15:13:02.707Z,5.20
2018-12-19T15:15:31.962Z,5.20
2018-12-19T15:18:00.583Z,5.20
2018-12-19T15:20:33.222Z,5.20
2018-12-19T15:23:04.068Z,5.20
2018-12-19T15:25:33.332Z,5.20
2018-12-19T15:28:03.391Z,5.30
2018-12-19T15:30:33.307Z,5.20
2018-12-19T15:33:03.265Z,5.30
2018-12-19T15:35:32.679Z,5.30
2018-12-19T15:38:02.116Z,5.30
2018-12-19T15:40:36.336Z,5.30
2018-12-19T15:43:06.208Z,5.30
2018-12-19T15:45:35.184Z,5.30
2018-12-19T15:48:05.936Z,5.30
2018-12-19T15:50:36.352Z,5.30
2018-12-19T15:53:06.872Z,5.40
2018-12-19T15:55:35.705Z,5.40
2018-12-19T15:58:04.711Z,5.40
2018-12-19T16:00:33.316Z,5.30
2018-12-19T16:03:03.572Z,5.30
2018-12-19T16:05:33.887Z,5.40
2018-12-19T16:08:04.412Z,5.40
2018-12-19T16:10:34.877Z,5.40
2018-12-19T16:13:10.257Z,5.50
2018-12-19T16:15:39.532Z,5.50
2018-12-19T16:20:54.262Z,5.50
2018-12-19T16:23:35.396Z,5.40
2018-12-19T16:26:08.737Z,5.40
2018-12-19T16:28:42.916Z,5.40
2018-12-19T16:31:21.843Z,5.30
2018-12-19T16:34:00.908Z,5.30
2018-12-19T16:36:40.911Z,5.30
2018-12-19T16:41:44.108Z,5.20
2018-12-19T16:44:13.916Z,5.20
2018-12-19T16:49:33.139Z,5.10
2018-12-19T16:52:06.237Z,5.00
2018-12-19T16:54:37.259Z,5.00
2018-12-19T16:57:17.246Z,5.00
2018-12-19T16:59:50.662Z,5.00
2018-12-19T17:02:21.634Z,4.90
2018-12-19T17:07:33.460Z,5.00
2018-12-19T17:10:03.642Z,5.00
2018-12-19T17:12:32.654Z,5.20
2018-12-19T17:15:03.106Z,5.30
2018-12-19T17:17:31.561Z,5.20
2018-12-19T17:20:00.175Z,5.10
2018-12-19T17:22:31.347Z,5.00
2018-12-19T17:24:59.780Z,5.00
2018-12-19T17:27:28.472Z,5.00
2018-12-19T17:29:58.116Z,5.00
2018-12-19T17:32:28.694Z,4.90
2018-12-19T17:34:57.312Z,5.00
2018-12-19T17:37:27.609Z,5.00
2018-12-19T17:39:57.374Z,4.90
2018-12-19T17:42:27.241Z,4.80
2018-12-19T17:44:57.150Z,4.80
2018-12-19T17:47:25.849Z,4.80
2018-12-19T17:49:55.173Z,5.00
2018-12-19T17:52:23.660Z,5.20
2018-12-19T17:54:52.251Z,5.20
2018-12-19T17:57:21.151Z,5.10
2018-12-19T17:59:49.526Z,5.00
2018-12-19T18:02:18.160Z,5.00
2018-12-19T18:04:46.596Z,5.00
2018-12-19T18:07:15.170Z,5.00
2018-12-19T18:09:44.132Z,4.90
2018-12-19T18:12:15.151Z,4.90
2018-12-19T18:14:43.631Z,4.90
2018-12-19T18:17:13.422Z,4.90
2018-12-19T18:19:42.541Z,4.90
2018-12-19T18:22:11.118Z,4.80
2018-12-19T18:24:39.753Z,4.70
2018-12-19T18:27:08.393Z,4.70
2018-12-19T18:29:36.798Z,4.60
2018-12-19T18:32:05.783Z,4.60
2018-12-19T18:34:42.027Z,4.60
2018-12-19T18:37:12.375Z,4.50
2018-12-19T18:39:41.040Z,4.40
2018-12-19T18:42:09.627Z,4.40
2018-12-19T18:44:38.912Z,4.40
2018-12-19T18:47:07.834Z,4.30
2018-12-19T18:49:38.334Z,4.20
2018-12-19T18:52:08.621Z,4.20
2018-12-19T18:54:41.573Z,4.30
2018-12-19T18:57:18.726Z,4.40
2018-12-19T18:59:48.372Z,4.30
2018-12-19T19:02:18.365Z,4.30
2018-12-19T19:04:47.095Z,4.20
2018-12-19T19:07:15.610Z,4.30
2018-12-19T19:09:44.951Z,4.50
2018-12-19T19:12:13.433Z,4.50
2018-12-19T19:14:41.891Z,4.40
2018-12-19T19:17:10.450Z,4.20
2018-12-19T19:19:40.538Z,4.20
2018-12-19T19:22:10.241Z,4.10
2018-12-19T19:24:40.002Z,4.20
2018-12-19T19:27:08.951Z,4.10
2018-12-19T19:29:37.490Z,4.10
2018-12-19T19:32:09.335Z,4.20
2018-12-19T19:34:41.859Z,4.20
2018-12-19T19:37:10.504Z,4.20
2018-12-19T19:39:38.889Z,4.20
2018-12-19T19:42:08.274Z,4.20
2018-12-19T19:44:37.417Z,4.30
2018-12-19T19:47:06.002Z,4.30
2018-12-19T19:49:35.315Z,4.40
2018-12-19T19:52:05.572Z,4.30
2018-12-19T19:54:34.878Z,4.40
2018-12-19T19:57:07.631Z,4.20
2018-12-19T19:59:37.112Z,4.20
2018-12-19T20:02:07.612Z,4.20
2018-12-19T20:04:39.448Z,4.20
2018-12-19T20:07:08.398Z,4.20
2018-12-19T20:09:38.567Z,4.20
2018-12-19T20:12:13.592Z,4.20
2018-12-19T20:14:43.903Z,4.20
2018-12-19T20:17:20.295Z,4.20
2018-12-19T20:19:50.601Z,4.30
2018-12-19T20:22:19.765Z,4.30
2018-12-19T20:24:49.503Z,4.20
2018-12-19T20:27:18.917Z,4.10
2018-12-19T20:29:49.250Z,4.20
2018-12-19T20:32:18.337Z,4.10
2018-12-19T20:38:04.286Z,3.90
2018-12-19T20:40:32.932Z,3.90
2018-12-19T20:43:06.510Z,4.00
2018-12-19T20:45:37.722Z,4.00
2018-12-19T20:48:06.202Z,4.10
2018-12-19T20:50:35.362Z,3.90
2018-12-19T20:53:04.028Z,3.90
2018-12-19T20:55:39.515Z,3.90
2018-12-19T20:58:08.370Z,4.00
2018-12-19T21:00:37.499Z,4.00
2018-12-19T21:03:06.312Z,3.90
2018-12-19T21:05:36.565Z,3.90
2018-12-19T21:08:06.365Z,4.00
2018-12-19T21:10:34.832Z,4.10
2018-12-19T21:13:03.325Z,3.80
2018-12-19T21:15:32.449Z,3.80
2018-12-19T21:18:06.320Z,3.70
2018-12-19T21:20:36.136Z,3.80
2018-12-19T21:23:05.002Z,3.60
2018-12-19T21:25:34.871Z,3.60
2018-12-19T21:30:41.237Z,3.50
2018-12-19T21:33:13.982Z,3.60
2018-12-19T21:35:48.390Z,3.50
2018-12-19T21:38:19.635Z,3.50
2018-12-19T21:40:51.701Z,3.50
2018-12-19T21:43:21.244Z,3.60
2018-12-19T21:46:04.726Z,3.60
2018-12-19T21:48:33.740Z,3.70
2018-12-19T21:51:03.405Z,3.70
2018-12-19T21:53:32.206Z,3.60
2018-12-19T21:56:01.383Z,3.60
2018-12-19T21:58:30.592Z,3.60
2018-12-19T22:00:59.777Z,3.60
2018-12-19T22:03:31.558Z,3.60
2018-12-19T22:06:00.638Z,3.50
2018-12-19T22:08:53.193Z,3.50
2018-12-19T22:14:26.806Z,3.60
2018-12-19T22:17:03.448Z,3.60
2018-12-19T22:19:41.666Z,3.60
2018-12-19T22:22:16.271Z,3.70
2018-12-19T22:24:46.926Z,3.50
2018-12-19T22:27:17.594Z,3.60
2018-12-19T22:29:48.814Z,3.70
2018-12-19T22:32:17.570Z,3.70
2018-12-19T22:34:47.431Z,3.70
2018-12-19T22:37:16.294Z,3.50
2018-12-19T22:39:46.188Z,3.40
2018-12-19T22:42:15.008Z,3.40
2018-12-19T22:44:56.008Z,3.30
2018-12-19T22:47:26.388Z,3.30
2018-12-19T22:49:55.024Z,3.20
2018-12-19T22:52:24.098Z,3.30
2018-12-19T22:54:52.578Z,3.40
2018-12-19T22:57:21.259Z,3.50
2018-12-19T22:59:57.068Z,3.50
2018-12-19T23:02:32.141Z,3.50
2018-12-19T23:05:01.584Z,3.60
2018-12-19T23:07:30.476Z,3.50
2018-12-19T23:10:01.242Z,3.50
2018-12-19T23:12:34.336Z,3.50
2018-12-19T23:15:23.070Z,3.40
2018-12-19T23:18:02.797Z,3.40
2018-12-19T23:20:31.996Z,3.50
2018-12-19T23:23:01.278Z,3.50
2018-12-19T23:25:31.092Z,3.50
2018-12-19T23:27:59.601Z,3.50
2018-12-19T23:30:29.275Z,3.60
2018-12-19T23:32:58.788Z,3.70
2018-12-19T23:35:27.334Z,3.70
2018-12-19T23:37:56.257Z,3.80
2018-12-19T23:40:25.909Z,3.80
2018-12-19T23:42:55.001Z,3.90
2018-12-19T23:45:26.234Z,3.80
2018-12-19T23:47:55.515Z,3.90
2018-12-19T23:50:24.196Z,4.00
2018-12-19T23:52:52.883Z,4.10
2018-12-19T23:55:21.644Z,4.00
2018-12-19T23:57:50.632Z,4.00
